createdAt,value
2023-04-12T00:01:32.161Z,254.67
2023-04-12T00:04:00.235Z,270.57
2023-04-12T00:06:32.376Z,255.73
2023-04-12T00:09:00.863Z,265.80
2023-04-12T00:11:29.240Z,243.27
2023-04-12T00:13:58.767Z,266.10
2023-04-12T00:16:26.772Z,243.73
2023-04-12T00:18:55.391Z,257.17
2023-04-12T00:21:23.794Z,255.23
2023-04-12T00:23:51.505Z,254.23
2023-04-12T00:26:19.125Z,247.07
2023-04-12T00:28:47.303Z,241.00
2023-04-12T00:31:16.369Z,261.70
2023-04-12T00:33:44.088Z,260.13
2023-04-12T00:36:11.834Z,250.27
2023-04-12T00:38:39.517Z,258.77
2023-04-12T00:41:07.888Z,247.00
2023-04-12T00:43:36.086Z,258.80
2023-04-12T00:46:04.396Z,261.47
2023-04-12T00:48:33.556Z,237.80
2023-04-12T00:51:03.909Z,248.90
2023-04-12T00:53:32.293Z,270.13
2023-04-12T00:56:00.048Z,259.33
2023-04-12T00:58:27.693Z,260.97
2023-04-12T01:00:55.924Z,253.63
2023-04-12T01:03:24.792Z,248.40
2023-04-12T01:06:05.202Z,242.70
2023-04-12T01:08:45.284Z,237.63
2023-04-12T01:11:19.383Z,223.67
2023-04-12T01:13:53.097Z,233.87
2023-04-12T01:16:29.253Z,235.53
2023-04-12T01:19:03.773Z,239.07
2023-04-12T01:21:42.190Z,237.03
2023-04-12T01:24:24.676Z,233.37
2023-04-12T01:26:53.028Z,238.10
2023-04-12T01:29:23.350Z,232.03
2023-04-12T01:31:54.476Z,230.40
2023-04-12T01:34:25.632Z,252.00
2023-04-12T01:36:54.458Z,248.17
2023-04-12T01:39:22.548Z,245.50
2023-04-12T01:41:50.812Z,225.57
2023-04-12T01:44:20.051Z,231.30
2023-04-12T01:46:49.727Z,255.80
2023-04-12T01:49:19.022Z,265.63
2023-04-12T01:51:52.090Z,263.97
2023-04-12T01:54:23.390Z,251.07
2023-04-12T01:56:57.735Z,248.00
2023-04-12T01:59:29.247Z,259.17
2023-04-12T02:01:59.113Z,255.43
2023-04-12T02:04:52.296Z,254.57
2023-04-12T02:07:23.845Z,270.00
2023-04-12T02:09:51.504Z,274.77
2023-04-12T02:12:21.115Z,260.10
2023-04-12T02:14:51.862Z,266.33
2023-04-12T02:17:21.185Z,259.93
2023-04-12T02:19:49.154Z,267.57
2023-04-12T02:22:17.217Z,268.57
2023-04-12T02:24:44.885Z,270.80
2023-04-12T02:27:12.558Z,275.73
2023-04-12T02:29:41.264Z,259.10
2023-04-12T02:32:09.032Z,261.33
2023-04-12T02:34:38.440Z,265.53
2023-04-12T02:37:17.681Z,262.30
2023-04-12T02:39:45.606Z,255.60
2023-04-12T02:42:13.648Z,254.03
2023-04-12T02:44:44.125Z,264.30
2023-04-12T02:47:13.971Z,263.97
2023-04-12T02:49:46.817Z,249.13
2023-04-12T02:52:17.177Z,239.03
2023-04-12T02:55:06.938Z,237.90
2023-04-12T02:57:34.885Z,239.93
2023-04-12T03:00:09.025Z,239.57
2023-04-12T03:02:45.904Z,242.50
2023-04-12T03:05:23.485Z,257.50
2023-04-12T03:07:52.573Z,262.37
2023-04-12T03:10:25.499Z,249.93
2023-04-12T03:13:02.396Z,248.10
2023-04-12T03:15:34.909Z,234.27
2023-04-12T03:18:03.277Z,258.27
2023-04-12T03:20:38.997Z,256.73
2023-04-12T03:23:09.564Z,246.63
2023-04-12T03:25:42.425Z,256.53
2023-04-12T03:28:39.328Z,227.73
2023-04-12T03:31:08.383Z,248.97
2023-04-12T03:33:47.065Z,251.70
2023-04-12T03:36:26.974Z,219.53
2023-04-12T03:39:05.853Z,229.17
2023-04-12T03:41:35.724Z,242.60
2023-04-12T03:44:07.249Z,240.23
2023-04-12T03:46:36.613Z,249.37
2023-04-12T03:49:09.070Z,246.73
2023-04-12T03:51:42.528Z,242.83
2023-04-12T03:54:11.129Z,236.57
2023-04-12T03:56:48.705Z,236.37
2023-04-12T03:59:24.580Z,248.47
2023-04-12T04:01:52.306Z,240.00
2023-04-12T04:04:20.934Z,241.97
2023-04-12T04:06:52.276Z,250.37
2023-04-12T04:09:20.295Z,261.87
2023-04-12T04:11:50.031Z,251.93
2023-04-12T04:14:18.668Z,249.93
2023-04-12T04:16:47.101Z,234.63
2023-04-12T04:19:15.697Z,243.37
2023-04-12T04:21:46.000Z,238.00
2023-04-12T04:24:15.275Z,228.10
2023-04-12T04:26:47.322Z,232.07
2023-04-12T04:29:23.707Z,235.60
2023-04-12T04:31:53.221Z,244.27
2023-04-12T04:34:23.206Z,232.47
2023-04-12T04:36:53.539Z,229.23
2023-04-12T04:39:27.180Z,229.77
2023-04-12T04:41:57.403Z,207.57
2023-04-12T04:44:39.358Z,228.90
2023-04-12T04:47:12.048Z,227.23
2023-04-12T04:49:39.703Z,233.37
2023-04-12T04:52:22.817Z,237.10
2023-04-12T04:54:57.372Z,229.17
2023-04-12T04:57:27.387Z,236.50
2023-04-12T04:59:57.512Z,240.90
2023-04-12T05:02:26.039Z,227.53
2023-04-12T05:04:56.296Z,224.67
2023-04-12T05:07:27.105Z,240.30
2023-04-12T05:09:56.418Z,240.00
2023-04-12T05:12:24.128Z,230.90
2023-04-12T05:15:10.713Z,235.87
2023-04-12T05:17:39.720Z,225.80
2023-04-12T05:20:10.615Z,247.93
2023-04-12T05:22:39.615Z,222.63
2023-04-12T05:25:09.734Z,252.77
2023-04-12T05:27:45.618Z,232.70
2023-04-12T05:30:16.369Z,216.47
2023-04-12T05:32:45.522Z,213.67
2023-04-12T05:35:15.253Z,231.87
2023-04-12T05:37:44.616Z,234.90
2023-04-12T05:40:15.802Z,234.27
2023-04-12T05:42:43.977Z,219.93
2023-04-12T05:45:12.721Z,235.13
2023-04-12T05:47:40.844Z,231.90
2023-04-12T05:50:09.263Z,238.53
2023-04-12T05:52:37.756Z,239.67
2023-04-12T05:55:07.635Z,231.63
2023-04-12T05:57:40.171Z,222.17
2023-04-12T06:00:13.149Z,238.03
2023-04-12T06:02:42.338Z,232.73
2023-04-12T06:05:11.006Z,237.73
2023-04-12T06:07:39.373Z,233.60
2023-04-12T06:10:08.599Z,238.93
2023-04-12T06:12:36.679Z,228.47
2023-04-12T06:15:07.334Z,225.60
2023-04-12T06:17:35.410Z,236.07
2023-04-12T06:20:05.852Z,244.30
2023-04-12T06:22:33.762Z,249.40
2023-04-12T06:25:02.227Z,243.50
2023-04-12T06:27:30.267Z,243.13
2023-04-12T06:29:58.354Z,243.80
2023-04-12T06:32:27.521Z,254.07
2023-04-12T06:34:56.181Z,228.43
2023-04-12T06:37:23.883Z,222.70
2023-04-12T06:39:52.501Z,247.77
2023-04-12T06:42:20.418Z,262.47
2023-04-12T06:44:48.587Z,241.70
2023-04-12T06:47:16.581Z,258.47
2023-04-12T06:49:45.612Z,244.73
2023-04-12T06:52:13.207Z,257.37
2023-04-12T06:54:40.844Z,249.93
2023-04-12T06:57:10.018Z,270.83
2023-04-12T06:59:37.728Z,254.00
2023-04-12T07:02:06.707Z,249.53
2023-04-12T07:04:34.864Z,256.33
2023-04-12T07:07:03.900Z,257.63
2023-04-12T07:09:32.213Z,247.67
2023-04-12T07:11:59.923Z,254.53
2023-04-12T07:14:27.606Z,259.27
2023-04-12T07:16:56.003Z,259.70
2023-04-12T07:19:23.915Z,240.50
2023-04-12T07:21:51.522Z,237.57
2023-04-12T07:24:20.506Z,270.47
2023-04-12T07:26:48.243Z,272.70
2023-04-12T07:29:16.970Z,263.63
2023-04-12T07:31:45.625Z,261.43
2023-04-12T07:34:13.471Z,279.07
2023-04-12T07:36:41.172Z,268.03
2023-04-12T07:39:11.866Z,276.27
2023-04-12T07:41:42.252Z,293.67
2023-04-12T07:44:09.962Z,258.73
2023-04-12T07:46:37.645Z,276.40
2023-04-12T07:49:05.374Z,281.57
2023-04-12T07:51:33.475Z,276.53
2023-04-12T07:54:01.447Z,279.03
2023-04-12T07:56:29.059Z,300.63
2023-04-12T07:58:58.202Z,276.97
2023-04-12T08:01:26.006Z,258.50
2023-04-12T08:03:53.836Z,287.20
2023-04-12T08:06:21.542Z,266.47
2023-04-12T08:08:49.366Z,289.73
2023-04-12T08:11:16.953Z,280.93
2023-04-12T08:13:44.590Z,275.93
2023-04-12T08:16:13.740Z,275.07
2023-04-12T08:18:41.601Z,279.00
2023-04-12T08:21:09.328Z,278.27
2023-04-12T08:23:37.041Z,263.37
2023-04-12T08:26:04.913Z,275.07
2023-04-12T08:28:33.451Z,284.53
2023-04-12T08:31:01.290Z,289.00
2023-04-12T08:33:30.359Z,277.27
2023-04-12T08:35:59.055Z,272.17
2023-04-12T08:38:41.438Z,298.87
2023-04-12T08:41:13.777Z,293.17
2023-04-12T08:43:45.298Z,276.90
2023-04-12T08:46:15.500Z,292.10
2023-04-12T08:48:46.268Z,296.07
2023-04-12T08:51:15.996Z,284.27
2023-04-12T08:53:44.060Z,286.60
2023-04-12T08:56:13.261Z,282.03
2023-04-12T08:58:42.962Z,285.57
2023-04-12T09:01:14.030Z,300.30
2023-04-12T09:03:43.461Z,280.40
2023-04-12T09:06:12.873Z,275.87
2023-04-12T09:08:53.321Z,279.37
2023-04-12T09:11:26.355Z,295.07
2023-04-12T09:13:55.925Z,289.27
2023-04-12T09:16:37.359Z,310.47
2023-04-12T09:19:05.523Z,304.07
2023-04-12T09:21:35.660Z,298.57
2023-04-12T09:24:06.097Z,287.07
2023-04-12T09:26:33.761Z,286.33
2023-04-12T09:29:01.458Z,295.20
2023-04-12T09:31:29.159Z,296.93
2023-04-12T09:34:07.698Z,307.93
2023-04-12T09:36:40.218Z,292.50
2023-04-12T09:39:08.946Z,286.13
2023-04-12T09:41:36.685Z,303.20
2023-04-12T09:44:04.864Z,309.43
2023-04-12T09:46:32.627Z,320.33
2023-04-12T09:49:00.454Z,317.07
2023-04-12T09:51:31.134Z,295.70
2023-04-12T09:54:01.945Z,297.80
2023-04-12T09:56:32.070Z,273.63
2023-04-12T09:59:02.862Z,295.23
2023-04-12T10:01:33.499Z,291.83
2023-04-12T10:04:02.460Z,299.37
2023-04-12T10:06:31.325Z,301.80
2023-04-12T10:09:02.904Z,309.53
2023-04-12T10:11:30.906Z,311.43
2023-04-12T10:13:59.781Z,305.70
2023-04-12T10:16:28.822Z,306.67
2023-04-12T10:18:57.094Z,297.97
2023-04-12T10:21:24.936Z,296.00
2023-04-12T10:23:52.643Z,305.70
2023-04-12T10:26:22.116Z,285.33
2023-04-12T10:29:26.260Z,295.97
2023-04-12T10:31:54.794Z,281.60
2023-04-12T10:34:29.617Z,307.73
2023-04-12T10:36:58.289Z,284.50
2023-04-12T10:39:40.455Z,283.73
2023-04-12T10:42:23.951Z,293.80
2023-04-12T10:44:53.019Z,304.83
2023-04-12T10:48:01.815Z,274.90
2023-04-12T10:50:31.243Z,297.57
2023-04-12T10:53:26.690Z,311.93
2023-04-12T10:55:54.618Z,286.27
2023-04-12T10:58:58.510Z,329.13
2023-04-12T11:01:29.014Z,295.23
2023-04-12T11:04:18.593Z,310.70
2023-04-12T11:07:10.090Z,279.23
2023-04-12T11:09:58.363Z,291.03
2023-04-12T11:12:35.454Z,292.37
2023-04-12T11:15:06.121Z,284.30
2023-04-12T11:17:55.189Z,270.60
2023-04-12T11:20:23.222Z,287.90
2023-04-12T11:22:51.737Z,305.83
2023-04-12T11:25:19.557Z,303.77
2023-04-12T11:27:51.448Z,311.77
2023-04-12T11:30:20.682Z,302.07
2023-04-12T11:32:48.640Z,310.30
2023-04-12T11:35:17.043Z,297.47
2023-04-12T11:37:45.142Z,295.33
2023-04-12T11:40:13.061Z,278.63
2023-04-12T11:42:41.490Z,297.27
2023-04-12T11:45:16.623Z,296.15
2023-04-12T11:47:47.160Z,300.77
2023-04-12T11:50:29.371Z,289.88
2023-04-12T11:53:09.854Z,279.80
2023-04-12T11:55:37.544Z,313.27
2023-04-12T11:58:05.241Z,314.30
2023-04-12T12:00:33.084Z,308.17
2023-04-12T12:03:07.197Z,298.73
2023-04-12T12:05:38.312Z,286.38
2023-04-12T12:08:07.837Z,310.80
2023-04-12T12:10:44.142Z,315.92
2023-04-12T12:13:19.865Z,298.15
2023-04-12T12:15:47.624Z,304.50
2023-04-12T12:18:16.823Z,311.42
2023-04-12T12:20:50.701Z,307.27
2023-04-12T12:23:30.073Z,291.73
2023-04-12T12:26:14.417Z,319.10
2023-04-12T12:28:50.875Z,300.40
2023-04-12T12:31:21.553Z,308.65
2023-04-12T12:33:54.863Z,299.48
2023-04-12T12:36:32.056Z,305.83
2023-04-12T12:39:06.750Z,307.48
2023-04-12T12:41:34.570Z,320.83
2023-04-12T12:44:02.533Z,300.55
2023-04-12T12:46:44.652Z,291.63
2023-04-12T12:49:19.861Z,301.95
2023-04-12T12:51:47.721Z,307.90
2023-04-12T12:54:25.067Z,305.05
2023-04-12T12:56:59.841Z,275.63
2023-04-12T12:59:27.454Z,321.48
2023-04-12T13:01:55.154Z,312.48
2023-04-12T13:04:24.282Z,320.40
2023-04-12T13:06:52.985Z,301.55
2023-04-12T13:09:20.838Z,308.80
2023-04-12T13:11:48.456Z,314.58
2023-04-12T13:14:16.776Z,303.70
2023-04-12T13:16:46.183Z,306.40
2023-04-12T13:19:13.929Z,309.45
2023-04-12T13:21:42.965Z,308.13
2023-04-12T13:24:11.210Z,305.58
2023-04-12T13:26:38.889Z,319.25
2023-04-12T13:29:06.575Z,314.42
2023-04-12T13:31:34.314Z,328.45
2023-04-12T13:34:02.050Z,325.63
2023-04-12T13:36:29.721Z,332.25
2023-04-12T13:38:58.822Z,338.00
2023-04-12T13:41:26.872Z,339.40
2023-04-12T13:43:54.546Z,322.60
2023-04-12T13:46:22.196Z,339.08
2023-04-12T13:48:49.846Z,354.95
2023-04-12T13:51:17.956Z,329.95
2023-04-12T13:53:45.848Z,330.80
2023-04-12T13:56:15.872Z,346.33
2023-04-12T13:58:44.024Z,345.75
2023-04-12T14:01:13.348Z,318.00
2023-04-12T14:03:41.574Z,332.70
2023-04-12T14:06:09.616Z,333.90
2023-04-12T14:08:37.402Z,325.77
2023-04-12T14:11:05.394Z,324.40
2023-04-12T14:13:34.524Z,331.95
2023-04-12T14:16:02.201Z,343.42
2023-04-12T14:18:29.918Z,340.88
2023-04-12T14:20:57.644Z,332.90
2023-04-12T14:23:26.073Z,317.38
2023-04-12T14:25:54.126Z,327.65
2023-04-12T14:28:24.150Z,324.38
2023-04-12T14:30:53.166Z,321.02
2023-04-12T14:33:20.828Z,338.38
2023-04-12T14:35:48.630Z,312.85
2023-04-12T14:38:16.279Z,318.48
2023-04-12T14:40:43.907Z,315.55
2023-04-12T14:43:11.578Z,325.23
2023-04-12T14:45:39.186Z,325.70
2023-04-12T14:48:08.410Z,302.58
2023-04-12T14:50:36.037Z,312.50
2023-04-12T14:53:03.660Z,308.90
2023-04-12T14:55:31.593Z,311.60
2023-04-12T14:57:59.318Z,316.85
2023-04-12T15:00:29.233Z,306.92
2023-04-12T15:02:57.469Z,303.80
2023-04-12T15:05:27.296Z,312.33
2023-04-12T15:07:55.274Z,309.63
2023-04-12T15:10:23.028Z,309.27
2023-04-12T15:12:50.775Z,288.33
2023-04-12T15:15:18.613Z,284.70
2023-04-12T15:17:46.334Z,300.45
2023-04-12T15:20:17.030Z,329.02
2023-04-12T15:22:46.074Z,311.88
2023-04-12T15:25:13.992Z,311.42
2023-04-12T15:27:41.813Z,288.85
2023-04-12T15:30:12.800Z,293.13
2023-04-12T15:32:42.397Z,291.23
2023-04-12T15:37:41.899Z,295.85
2023-04-12T15:40:13.582Z,295.92
2023-04-12T15:42:43.281Z,273.70
2023-04-12T15:45:11.904Z,302.20
2023-04-12T15:47:41.250Z,288.48
2023-04-12T15:50:10.075Z,314.90
2023-04-12T15:52:37.784Z,284.27
2023-04-12T15:55:06.081Z,323.35
2023-04-12T15:57:37.108Z,316.13
2023-04-12T16:00:13.852Z,292.77
2023-04-12T16:02:42.090Z,282.75
2023-04-12T16:05:10.127Z,314.83
2023-04-12T16:07:40.444Z,308.58
2023-04-12T16:10:09.030Z,301.45
2023-04-12T16:12:38.035Z,289.40
2023-04-12T16:15:06.884Z,295.17
2023-04-12T16:17:34.875Z,325.20
2023-04-12T16:20:02.662Z,301.35
2023-04-12T16:22:30.379Z,309.05
2023-04-12T16:24:58.358Z,304.73
2023-04-12T16:27:29.364Z,283.23
2023-04-12T16:29:58.668Z,314.70
2023-04-12T16:32:26.380Z,302.38
2023-04-12T16:34:54.093Z,307.02
2023-04-12T16:37:21.941Z,327.55
2023-04-12T16:39:50.824Z,314.83
2023-04-12T16:42:21.710Z,318.55
2023-04-12T16:44:49.349Z,295.10
2023-04-12T16:47:18.488Z,311.45
2023-04-12T16:49:46.679Z,310.38
2023-04-12T16:52:15.358Z,315.80
2023-04-12T16:54:43.131Z,298.73
2023-04-12T16:57:11.710Z,302.95
2023-04-12T16:59:39.763Z,316.98
2023-04-12T17:02:07.889Z,284.40
2023-04-12T17:04:37.361Z,292.83
2023-04-12T17:07:05.549Z,303.25
2023-04-12T17:09:33.303Z,318.77
2023-04-12T17:12:01.171Z,300.38
2023-04-12T17:14:29.750Z,299.55
2023-04-12T17:16:57.584Z,282.63
2023-04-12T17:19:25.888Z,254.18
2023-04-12T17:21:55.036Z,276.75
2023-04-12T17:24:25.411Z,256.33
2023-04-12T17:26:53.707Z,270.25
2023-04-12T17:29:21.750Z,282.98
2023-04-12T17:31:53.157Z,273.08
2023-04-12T17:34:22.766Z,274.65
2023-04-12T17:36:50.361Z,283.45
2023-04-12T17:39:19.326Z,258.85
2023-04-12T17:41:47.843Z,285.75
2023-04-12T17:44:15.505Z,287.85
2023-04-12T17:46:44.141Z,283.75
2023-04-12T17:49:11.771Z,286.05
2023-04-12T17:51:39.410Z,266.02
2023-04-12T17:54:07.753Z,252.80
2023-04-12T17:56:36.751Z,273.20
2023-04-12T17:59:05.531Z,264.60
2023-04-12T18:01:34.810Z,273.92
2023-04-12T18:04:05.562Z,284.13
2023-04-12T18:06:33.927Z,274.95
2023-04-12T18:09:02.721Z,260.35
2023-04-12T18:11:30.441Z,277.58
2023-04-12T18:13:59.778Z,269.48
2023-04-12T18:16:28.009Z,270.58
2023-04-12T18:18:55.969Z,253.93
2023-04-12T18:21:23.833Z,272.33
2023-04-12T18:23:52.063Z,267.95
2023-04-12T18:26:19.775Z,286.35
2023-04-12T18:28:47.388Z,278.35
2023-04-12T18:31:16.616Z,274.05
2023-04-12T18:33:44.332Z,271.65
2023-04-12T18:36:12.230Z,263.95
2023-04-12T18:38:40.190Z,274.77
2023-04-12T18:41:09.132Z,271.05
2023-04-12T18:43:36.758Z,268.23
2023-04-12T18:46:04.596Z,281.45
2023-04-12T18:48:35.387Z,284.42
2023-04-12T18:51:03.116Z,281.77
2023-04-12T18:53:31.003Z,261.95
2023-04-12T18:56:08.484Z,281.25
2023-04-12T18:58:53.984Z,262.38
2023-04-12T19:01:23.163Z,253.13
2023-04-12T19:03:52.344Z,271.35
2023-04-12T19:06:20.272Z,279.13
2023-04-12T19:08:49.555Z,269.00
2023-04-12T19:11:17.244Z,267.33
2023-04-12T19:13:44.870Z,265.15
2023-04-12T19:16:12.712Z,272.27
2023-04-12T19:18:40.388Z,296.33
2023-04-12T19:21:09.913Z,283.52
2023-04-12T19:23:38.077Z,274.45
2023-04-12T19:26:07.584Z,281.95
2023-04-12T19:28:35.581Z,242.10
2023-04-12T19:31:05.053Z,230.10
2023-04-12T19:33:32.776Z,234.07
2023-04-12T19:36:00.459Z,260.20
2023-04-12T19:38:29.467Z,246.73
2023-04-12T19:40:57.089Z,246.17
2023-04-12T19:43:25.634Z,253.87
2023-04-12T19:45:53.474Z,225.83
2023-04-12T19:48:21.280Z,227.30
2023-04-12T19:50:49.033Z,214.63
2023-04-12T19:53:18.002Z,223.43
2023-04-12T19:55:46.998Z,230.47
2023-04-12T19:58:15.368Z,231.50
2023-04-12T20:00:43.411Z,237.20
2023-04-12T20:03:11.516Z,217.70
2023-04-12T20:05:39.908Z,226.63
2023-04-12T20:08:07.745Z,213.97
2023-04-12T20:10:35.942Z,231.03
2023-04-12T20:13:09.584Z,219.53
2023-04-12T20:15:38.859Z,204.07
2023-04-12T20:18:08.085Z,208.73
2023-04-12T20:20:35.787Z,224.37
2023-04-12T20:23:03.485Z,219.87
2023-04-12T20:25:33.878Z,225.97
2023-04-12T20:28:02.662Z,213.67
2023-04-12T20:30:31.927Z,216.27
2023-04-12T20:33:00.910Z,219.90
2023-04-12T20:35:28.978Z,226.43
2023-04-12T20:37:56.740Z,208.37
2023-04-12T20:40:27.036Z,222.03
2023-04-12T20:42:54.741Z,224.17
2023-04-12T20:45:23.307Z,219.93
2023-04-12T20:47:52.356Z,216.07
2023-04-12T20:50:22.955Z,229.37
2023-04-12T20:52:51.878Z,227.00
2023-04-12T20:55:19.803Z,217.17
2023-04-12T20:57:47.629Z,217.87
2023-04-12T21:00:17.847Z,221.00
2023-04-12T21:02:46.954Z,223.37
2023-04-12T21:05:17.116Z,232.60
2023-04-12T21:07:46.664Z,228.47
2023-04-12T21:10:15.100Z,206.30
2023-04-12T21:12:44.922Z,226.77
2023-04-12T21:15:13.378Z,211.83
2023-04-12T21:17:41.393Z,223.73
2023-04-12T21:20:13.380Z,224.80
2023-04-12T21:22:43.929Z,219.93
2023-04-12T21:25:13.562Z,216.23
2023-04-12T21:27:42.501Z,223.67
2023-04-12T21:30:12.547Z,220.90
2023-04-12T21:32:41.026Z,214.83
2023-04-12T21:35:10.987Z,226.43
2023-04-12T21:37:39.360Z,233.70
2023-04-12T21:40:10.054Z,216.80
2023-04-12T21:42:38.360Z,225.03
2023-04-12T21:45:08.204Z,203.37
2023-04-12T21:47:36.737Z,212.97
2023-04-12T21:50:04.706Z,233.60
2023-04-12T21:52:32.436Z,224.73
2023-04-12T21:55:00.159Z,219.20
2023-04-12T21:57:31.776Z,215.13
2023-04-12T21:59:59.540Z,207.07
2023-04-12T22:02:27.754Z,212.90
2023-04-12T22:04:55.558Z,205.23
2023-04-12T22:07:23.298Z,204.63
2023-04-12T22:09:53.435Z,205.10
2023-04-12T22:12:21.717Z,208.93
2023-04-12T22:14:50.705Z,192.60
2023-04-12T22:17:18.869Z,226.07
2023-04-12T22:19:46.793Z,191.43
2023-04-12T22:22:15.367Z,196.63
2023-04-12T22:24:43.998Z,207.87
2023-04-12T22:27:11.912Z,209.60
2023-04-12T22:29:39.642Z,198.40
2023-04-12T22:32:09.379Z,199.33
2023-04-12T22:34:37.747Z,220.50
2023-04-12T22:37:06.906Z,204.67
2023-04-12T22:39:34.657Z,200.67
2023-04-12T22:42:04.036Z,201.70
2023-04-12T22:44:37.916Z,210.60
2023-04-12T22:47:07.288Z,199.70
2023-04-12T22:49:46.389Z,209.70
2023-04-12T22:52:14.001Z,200.87
2023-04-12T22:54:41.685Z,201.67
2023-04-12T22:57:09.352Z,213.53
2023-04-12T22:59:37.863Z,217.53
2023-04-12T23:02:06.469Z,239.27
2023-04-12T23:04:35.575Z,246.90
2023-04-12T23:07:03.275Z,248.83
2023-04-12T23:09:32.804Z,249.17
2023-04-12T23:12:00.582Z,227.50
2023-04-12T23:14:29.734Z,226.47
2023-04-12T23:16:57.899Z,229.00
2023-04-12T23:19:25.933Z,221.37
2023-04-12T23:21:55.401Z,240.50
2023-04-12T23:24:23.113Z,222.67
2023-04-12T23:26:50.820Z,217.97
2023-04-12T23:29:18.517Z,233.53
2023-04-12T23:31:46.256Z,216.43
2023-04-12T23:34:13.950Z,225.17
2023-04-12T23:36:41.573Z,199.83
2023-04-12T23:39:11.189Z,217.67
2023-04-12T23:41:40.700Z,226.87
2023-04-12T23:44:09.015Z,207.43
2023-04-12T23:46:36.682Z,219.33
2023-04-12T23:49:04.369Z,235.77
2023-04-12T23:51:32.416Z,212.23
2023-04-12T23:54:00.655Z,202.63
2023-04-12T23:56:29.894Z,212.87
2023-04-12T23:58:57.526Z,216.60
